createdAt,value
2023-03-26T00:01:14.940Z,70.50
2023-03-26T00:03:44.630Z,70.49
2023-03-26T00:06:13.570Z,70.54
2023-03-26T00:08:42.076Z,70.57
2023-03-26T00:11:10.287Z,70.60
2023-03-26T00:13:37.542Z,70.63
2023-03-26T00:16:05.277Z,70.72
2023-03-26T00:18:34.547Z,70.66
2023-03-26T00:21:03.741Z,70.53
2023-03-26T00:23:32.685Z,70.66
2023-03-26T00:26:00.410Z,70.64
2023-03-26T00:28:29.078Z,70.65
2023-03-26T00:31:00.566Z,70.62
2023-03-26T00:33:32.980Z,70.65
2023-03-26T00:36:01.361Z,70.75
2023-03-26T00:38:30.459Z,70.83
2023-03-26T00:41:05.362Z,70.74
2023-03-26T00:43:35.476Z,70.81
2023-03-26T00:46:06.371Z,70.89
2023-03-26T00:48:44.560Z,70.92
2023-03-26T00:51:14.824Z,71.07
2023-03-26T00:53:42.545Z,71.15
2023-03-26T00:56:09.889Z,71.11
2023-03-26T00:58:37.981Z,71.27
2023-03-26T01:01:13.289Z,71.17
2023-03-26T01:03:42.851Z,71.15
2023-03-26T01:06:39.197Z,71.19
2023-03-26T01:09:20.576Z,71.16
2023-03-26T01:11:50.726Z,71.24
2023-03-26T01:14:32.896Z,71.22
2023-03-26T01:17:22.097Z,71.29
2023-03-26T01:20:19.960Z,71.36
2023-03-26T01:23:12.015Z,71.32
2023-03-26T01:26:11.925Z,71.40
2023-03-26T01:28:47.295Z,71.32
2023-03-26T01:31:53.192Z,71.37
2023-03-26T01:35:14.568Z,71.52
2023-03-26T01:38:44.501Z,71.52
2023-03-26T01:41:38.346Z,71.61
2023-03-26T01:44:47.769Z,71.69
2023-03-26T01:47:47.667Z,71.67
2023-03-26T01:50:45.790Z,71.70
2023-03-26T01:53:46.157Z,71.64
2023-03-26T01:56:45.801Z,71.81
2023-03-26T02:03:26.673Z,72.00
2023-03-26T02:06:15.336Z,72.13
2023-03-26T02:08:51.806Z,72.38
2023-03-26T02:11:20.024Z,72.67
2023-03-26T02:13:48.638Z,73.06
2023-03-26T02:16:16.992Z,73.86
2023-03-26T02:18:50.848Z,74.75
2023-03-26T02:21:21.087Z,75.43
2023-03-26T02:23:50.125Z,75.67
2023-03-26T02:26:19.250Z,75.73
2023-03-26T02:28:59.239Z,75.67
2023-03-26T02:31:30.739Z,75.62
2023-03-26T02:33:57.609Z,75.68
2023-03-26T02:36:26.809Z,75.78
2023-03-26T02:38:57.500Z,75.95
2023-03-26T02:41:28.771Z,76.28
2023-03-26T02:44:08.261Z,76.40
2023-03-26T02:47:04.613Z,76.33
2023-03-26T02:49:42.985Z,76.40
2023-03-26T02:52:10.633Z,76.43
2023-03-26T02:54:37.858Z,76.42
2023-03-26T02:57:25.374Z,76.24
2023-03-26T03:00:16.562Z,76.07
2023-03-26T03:02:48.529Z,75.86
2023-03-26T03:05:31.675Z,75.74
2023-03-26T03:08:21.907Z,75.50
2023-03-26T03:11:12.562Z,75.37
2023-03-26T03:13:48.885Z,75.27
2023-03-26T03:16:19.553Z,75.13
2023-03-26T03:18:53.825Z,75.01
2023-03-26T03:21:26.571Z,74.70
2023-03-26T03:24:00.226Z,74.47
2023-03-26T03:26:30.216Z,74.11
2023-03-26T03:28:59.119Z,73.95
2023-03-26T03:31:26.627Z,73.73
2023-03-26T03:33:57.255Z,73.60
2023-03-26T03:36:29.966Z,73.43
2023-03-26T03:39:02.759Z,73.30
2023-03-26T03:41:33.396Z,73.26
2023-03-26T03:44:02.337Z,73.10
2023-03-26T03:46:31.265Z,73.15
2023-03-26T03:48:59.837Z,73.02
2023-03-26T03:51:31.033Z,72.98
2023-03-26T03:54:03.219Z,72.94
2023-03-26T03:56:55.570Z,73.04
2023-03-26T03:59:26.038Z,72.84
2023-03-26T04:01:53.479Z,72.73
2023-03-26T04:04:49.699Z,72.57
2023-03-26T04:07:19.770Z,72.41
2023-03-26T04:10:08.106Z,72.04
2023-03-26T04:13:17.194Z,71.72
2023-03-26T04:16:07.748Z,71.39
2023-03-26T04:18:41.622Z,71.12
2023-03-26T04:21:15.319Z,70.79
2023-03-26T04:23:42.596Z,70.59
2023-03-26T04:26:36.277Z,70.16
2023-03-26T04:29:11.438Z,69.87
2023-03-26T04:31:39.330Z,69.77
2023-03-26T04:34:13.143Z,69.50
2023-03-26T04:36:48.537Z,69.45
2023-03-26T04:39:17.193Z,69.47
2023-03-26T04:42:03.102Z,69.56
2023-03-26T04:44:50.416Z,69.60
2023-03-26T04:47:18.157Z,69.59
2023-03-26T04:49:46.904Z,69.49
2023-03-26T04:52:16.019Z,69.59
2023-03-26T04:55:37.995Z,69.58
2023-03-26T04:58:13.558Z,69.51
2023-03-26T05:00:52.582Z,69.14
2023-03-26T05:03:20.507Z,68.76
2023-03-26T05:05:49.226Z,68.49
2023-03-26T05:08:16.148Z,68.36
2023-03-26T05:10:45.474Z,68.14
2023-03-26T05:13:23.956Z,68.14
2023-03-26T05:15:55.228Z,68.21
2023-03-26T05:18:39.758Z,68.08
2023-03-26T05:21:07.566Z,67.85
2023-03-26T05:23:40.038Z,67.87
2023-03-26T05:26:28.767Z,68.00
2023-03-26T05:28:56.482Z,68.10
2023-03-26T05:31:30.427Z,68.27
2023-03-26T05:34:00.522Z,68.39
2023-03-26T05:36:40.642Z,68.54
2023-03-26T05:39:26.490Z,68.59
2023-03-26T05:41:56.790Z,68.50
2023-03-26T05:44:29.845Z,68.33
2023-03-26T05:46:59.742Z,68.18
2023-03-26T05:49:47.569Z,67.99
2023-03-26T05:52:49.219Z,67.77
2023-03-26T05:55:22.228Z,67.12
2023-03-26T05:58:18.372Z,66.77
2023-03-26T06:01:16.498Z,66.56
2023-03-26T06:04:03.015Z,66.43
2023-03-26T06:06:35.977Z,66.33
2023-03-26T06:09:04.007Z,65.93
2023-03-26T06:11:31.542Z,66.04
2023-03-26T06:13:59.971Z,66.15
2023-03-26T06:16:28.078Z,66.23
2023-03-26T06:19:04.498Z,65.92
2023-03-26T06:21:50.652Z,65.93
2023-03-26T06:24:21.746Z,65.81
2023-03-26T06:27:07.274Z,65.75
2023-03-26T06:29:51.018Z,65.74
2023-03-26T06:32:38.477Z,65.43
2023-03-26T06:35:10.819Z,65.21
2023-03-26T06:37:37.820Z,64.85
2023-03-26T06:40:06.005Z,64.63
2023-03-26T06:43:09.535Z,64.52
2023-03-26T06:46:04.601Z,64.25
2023-03-26T06:48:54.910Z,63.86
2023-03-26T06:51:27.709Z,63.77
2023-03-26T06:54:07.110Z,63.55
2023-03-26T06:56:54.435Z,63.35
2023-03-26T06:59:40.152Z,62.97
2023-03-26T07:02:39.870Z,62.50
2023-03-26T07:05:25.527Z,61.86
2023-03-26T07:08:11.469Z,61.51
2023-03-26T07:10:57.576Z,60.66
2023-03-26T07:13:47.180Z,60.44
2023-03-26T07:16:33.657Z,60.76
2023-03-26T07:19:33.531Z,60.63
2023-03-26T07:22:01.126Z,60.27
2023-03-26T07:24:49.531Z,59.66
2023-03-26T07:27:59.544Z,59.65
2023-03-26T07:31:23.629Z,59.39
2023-03-26T07:34:16.706Z,58.47
2023-03-26T07:37:44.109Z,57.32
2023-03-26T07:40:31.556Z,56.58
2023-03-26T07:43:56.270Z,55.98
2023-03-26T07:46:38.893Z,55.96
2023-03-26T07:49:26.737Z,56.03
2023-03-26T07:52:20.177Z,55.62
2023-03-26T07:55:14.859Z,55.06
2023-03-26T07:58:37.904Z,54.96
2023-03-26T08:01:40.794Z,54.71
2023-03-26T08:04:26.137Z,54.55
2023-03-26T08:07:15.660Z,54.01
2023-03-26T08:10:07.933Z,53.82
2023-03-26T08:13:00.313Z,53.42
2023-03-26T08:15:33.181Z,53.34
2023-03-26T08:18:26.680Z,52.43
2023-03-26T08:21:16.723Z,51.87
2023-03-26T08:24:20.454Z,52.00
2023-03-26T08:26:58.988Z,51.87
2023-03-26T08:29:44.775Z,51.84
2023-03-26T08:32:18.105Z,52.24
2023-03-26T08:34:45.812Z,52.71
2023-03-26T08:37:12.857Z,53.04
2023-03-26T08:39:41.664Z,52.45
2023-03-26T08:42:18.794Z,52.10
2023-03-26T08:45:08.442Z,51.38
2023-03-26T08:48:01.288Z,50.82
2023-03-26T08:50:46.999Z,51.21
2023-03-26T08:53:51.447Z,51.12
2023-03-26T08:56:46.458Z,51.08
2023-03-26T08:59:38.090Z,50.50
2023-03-26T09:02:20.712Z,50.77
2023-03-26T09:04:59.689Z,51.03
2023-03-26T09:07:49.254Z,50.59
2023-03-26T09:10:51.826Z,50.20
2023-03-26T09:13:37.241Z,50.14
2023-03-26T09:16:16.779Z,50.02
2023-03-26T09:18:50.318Z,49.79
2023-03-26T09:21:27.318Z,49.34
2023-03-26T09:24:27.213Z,49.66
2023-03-26T09:27:22.609Z,49.81
2023-03-26T09:30:04.033Z,49.80
2023-03-26T09:33:14.128Z,49.85
2023-03-26T09:36:00.356Z,49.37
2023-03-26T09:38:39.968Z,49.39
2023-03-26T09:41:17.077Z,48.99
2023-03-26T09:44:13.988Z,49.04
2023-03-26T09:46:50.041Z,49.03
2023-03-26T09:49:45.718Z,48.86
2023-03-26T09:52:31.199Z,48.72
2023-03-26T09:55:19.713Z,48.38
2023-03-26T09:57:58.031Z,48.22
2023-03-26T10:00:48.356Z,48.51
2023-03-26T10:03:45.377Z,48.93
2023-03-26T10:06:18.586Z,49.00
2023-03-26T10:08:57.107Z,48.84
2023-03-26T10:11:33.764Z,48.89
2023-03-26T10:14:24.515Z,48.88
2023-03-26T10:17:26.218Z,49.34
2023-03-26T10:20:27.307Z,49.17
2023-03-26T10:23:39.286Z,49.25
2023-03-26T10:26:15.824Z,49.75
2023-03-26T10:29:20.281Z,50.16
2023-03-26T10:31:57.295Z,50.44
2023-03-26T10:34:32.559Z,51.17
2023-03-26T10:37:31.714Z,53.12
2023-03-26T10:40:10.108Z,54.50
2023-03-26T10:43:16.631Z,55.61
2023-03-26T10:46:13.460Z,56.05
2023-03-26T10:49:21.369Z,56.13
2023-03-26T10:51:59.561Z,56.05
2023-03-26T10:54:46.459Z,55.54
2023-03-26T10:57:46.715Z,55.36
2023-03-26T11:00:26.882Z,55.59
2023-03-26T11:03:14.085Z,55.70
2023-03-26T11:06:18.896Z,55.01
2023-03-26T11:08:57.033Z,54.08
2023-03-26T11:11:31.654Z,53.89
2023-03-26T11:14:31.761Z,53.99
2023-03-26T11:17:40.608Z,54.26
2023-03-26T11:20:24.019Z,54.68
2023-03-26T11:23:28.501Z,54.81
2023-03-26T11:26:31.275Z,54.85
2023-03-26T11:29:33.629Z,54.33
2023-03-26T11:32:24.014Z,54.14
2023-03-26T11:35:40.819Z,54.07
2023-03-26T11:38:21.358Z,53.80
2023-03-26T11:40:52.356Z,53.51
2023-03-26T11:43:39.176Z,53.57
2023-03-26T11:46:09.255Z,53.48
2023-03-26T11:48:42.523Z,53.24
2023-03-26T11:51:33.388Z,53.47
2023-03-26T11:54:04.844Z,53.63
2023-03-26T11:56:37.309Z,53.68
2023-03-26T11:59:23.260Z,53.78
2023-03-26T12:02:17.808Z,53.17
2023-03-26T12:04:45.875Z,52.45
2023-03-26T12:07:20.729Z,51.14
2023-03-26T12:10:18.317Z,50.27
2023-03-26T12:12:49.953Z,50.15
2023-03-26T12:15:18.614Z,50.19
2023-03-26T12:17:47.236Z,50.38
2023-03-26T12:20:26.872Z,50.73
2023-03-26T12:23:00.990Z,51.36
2023-03-26T12:25:32.918Z,51.44
2023-03-26T12:28:04.970Z,51.53
2023-03-26T12:30:39.107Z,51.11
2023-03-26T12:33:25.658Z,50.44
2023-03-26T12:35:53.799Z,48.17
2023-03-26T12:38:33.419Z,47.99
2023-03-26T12:41:08.158Z,47.59
2023-03-26T12:44:51.664Z,47.43
2023-03-26T12:47:55.305Z,47.52
2023-03-26T12:49:24.558Z,47.50
2023-03-26T12:51:57.694Z,47.53
2023-03-26T12:54:32.579Z,47.49
2023-03-26T12:57:24.860Z,47.22
2023-03-26T13:00:13.599Z,47.15
2023-03-26T13:03:14.395Z,46.93
2023-03-26T13:06:10.390Z,47.14
2023-03-26T13:08:57.140Z,47.20
2023-03-26T13:12:13.916Z,47.02
2023-03-26T13:14:51.564Z,47.02
2023-03-26T13:17:24.283Z,47.39
2023-03-26T13:20:01.349Z,46.06
2023-03-26T13:23:07.765Z,46.27
2023-03-26T13:25:53.237Z,50.04
2023-03-26T13:28:48.035Z,51.97
2023-03-26T13:31:27.698Z,53.75
2023-03-26T13:34:03.874Z,55.33
2023-03-26T13:36:34.347Z,56.63
2023-03-26T13:39:49.445Z,57.23
2023-03-26T13:42:22.004Z,58.18
2023-03-26T13:45:14.178Z,58.93
2023-03-26T13:47:44.515Z,60.21
2023-03-26T13:50:23.384Z,60.98
2023-03-26T13:53:06.347Z,61.75
2023-03-26T13:55:42.223Z,62.21
2023-03-26T13:58:34.913Z,62.93
2023-03-26T14:01:05.016Z,63.45
2023-03-26T14:03:53.979Z,63.93
2023-03-26T14:06:48.357Z,64.32
2023-03-26T14:09:37.870Z,64.74
2023-03-26T14:12:20.922Z,64.86
2023-03-26T14:15:03.773Z,64.79
2023-03-26T14:17:36.422Z,64.19
2023-03-26T14:20:31.385Z,63.26
2023-03-26T14:23:37.816Z,63.24
2023-03-26T14:26:24.629Z,62.81
2023-03-26T14:29:13.396Z,62.65
2023-03-26T14:32:03.677Z,62.28
2023-03-26T14:34:39.723Z,61.06
2023-03-26T14:37:19.009Z,60.85
2023-03-26T14:40:23.838Z,61.14
2023-03-26T14:43:35.611Z,61.22
2023-03-26T14:46:23.044Z,61.22
2023-03-26T14:49:06.768Z,60.92
2023-03-26T14:51:36.840Z,60.12
2023-03-26T14:54:11.648Z,58.84
2023-03-26T14:57:17.315Z,58.11
2023-03-26T15:00:06.787Z,56.48
2023-03-26T15:02:58.528Z,48.41
2023-03-26T15:05:57.712Z,46.19
2023-03-26T15:08:44.165Z,45.76
2023-03-26T15:11:25.462Z,46.24
2023-03-26T15:14:05.722Z,45.82
2023-03-26T15:16:55.397Z,45.56
2023-03-26T15:19:58.350Z,45.03
2023-03-26T15:22:44.248Z,45.05
2023-03-26T15:25:14.370Z,45.10
2023-03-26T15:27:53.637Z,45.42
2023-03-26T15:30:51.820Z,46.03
2023-03-26T15:33:35.514Z,45.97
2023-03-26T15:36:17.437Z,45.58
2023-03-26T15:39:22.921Z,45.32
2023-03-26T15:41:58.135Z,45.27
2023-03-26T15:45:10.049Z,45.31
2023-03-26T15:47:48.568Z,44.90
2023-03-26T15:50:21.216Z,44.36
2023-03-26T15:53:26.221Z,44.38
2023-03-26T15:56:15.579Z,44.68
2023-03-26T15:58:44.958Z,44.87
2023-03-26T16:01:27.260Z,44.96
2023-03-26T16:04:04.486Z,45.36
2023-03-26T16:07:10.795Z,45.98
2023-03-26T16:09:45.135Z,46.57
2023-03-26T16:12:12.328Z,47.20
2023-03-26T16:14:46.904Z,47.80
2023-03-26T16:17:21.548Z,48.36
2023-03-26T16:20:16.818Z,48.89
2023-03-26T16:22:54.549Z,49.38
2023-03-26T16:25:29.892Z,49.87
2023-03-26T16:28:27.450Z,50.25
2023-03-26T16:31:36.982Z,50.80
2023-03-26T16:34:25.738Z,51.25
2023-03-26T16:36:53.784Z,51.62
2023-03-26T16:39:39.331Z,52.00
2023-03-26T16:42:15.177Z,52.29
2023-03-26T16:44:51.868Z,52.67
2023-03-26T16:47:33.028Z,53.02
2023-03-26T16:50:37.803Z,53.30
2023-03-26T16:53:45.775Z,53.58
2023-03-26T16:56:27.622Z,53.88
2023-03-26T16:59:07.168Z,54.04
2023-03-26T17:01:45.838Z,54.35
2023-03-26T17:04:32.249Z,54.61
2023-03-26T17:07:25.299Z,54.83
2023-03-26T17:10:03.787Z,55.01
2023-03-26T17:13:02.470Z,55.14
2023-03-26T17:15:46.484Z,55.34
2023-03-26T17:18:25.142Z,55.68
2023-03-26T17:21:12.540Z,55.83
2023-03-26T17:24:22.472Z,56.05
2023-03-26T17:27:12.666Z,56.45
2023-03-26T17:30:23.417Z,56.67
2023-03-26T17:32:59.655Z,56.93
2023-03-26T17:35:45.774Z,56.99
2023-03-26T17:38:37.258Z,57.03
2023-03-26T17:41:05.042Z,57.08
2023-03-26T17:43:42.392Z,56.93
2023-03-26T17:46:38.814Z,56.98
2023-03-26T17:49:12.125Z,56.95
2023-03-26T17:52:01.836Z,56.90
2023-03-26T17:54:46.674Z,56.88
2023-03-26T17:57:27.653Z,56.98
2023-03-26T17:59:58.701Z,56.97
2023-03-26T18:02:40.984Z,56.98
2023-03-26T18:05:09.161Z,57.12
2023-03-26T18:08:03.049Z,57.15
2023-03-26T18:10:48.581Z,57.11
2023-03-26T18:13:25.899Z,57.33
2023-03-26T18:16:23.839Z,57.44
2023-03-26T18:18:57.513Z,57.55
2023-03-26T18:21:38.628Z,57.57
2023-03-26T18:24:07.214Z,57.59
2023-03-26T18:26:42.715Z,57.73
2023-03-26T18:29:25.923Z,57.79
2023-03-26T18:31:55.223Z,57.94
2023-03-26T18:34:23.854Z,58.08
2023-03-26T18:37:08.043Z,58.28
2023-03-26T18:39:35.254Z,58.36
2023-03-26T18:42:02.183Z,58.53
2023-03-26T18:44:29.483Z,58.60
2023-03-26T18:46:56.505Z,58.62
2023-03-26T18:49:23.652Z,58.59
2023-03-26T18:51:57.185Z,58.59
2023-03-26T18:54:24.877Z,58.75
2023-03-26T18:56:52.317Z,58.82
2023-03-26T18:59:32.138Z,58.83
2023-03-26T19:02:03.581Z,59.10
2023-03-26T19:04:33.098Z,59.12
2023-03-26T19:07:01.204Z,59.35
2023-03-26T19:09:32.158Z,59.38
2023-03-26T19:12:27.965Z,59.41
2023-03-26T19:15:09.089Z,59.62
2023-03-26T19:17:44.272Z,59.82
2023-03-26T19:20:17.825Z,59.99
2023-03-26T19:22:45.960Z,60.15
2023-03-26T19:25:38.396Z,60.35
2023-03-26T19:28:06.809Z,60.67
2023-03-26T19:30:35.581Z,60.83
2023-03-26T19:33:12.853Z,61.00
2023-03-26T19:35:44.965Z,61.31
2023-03-26T19:38:22.756Z,61.53
2023-03-26T19:40:51.949Z,61.77
2023-03-26T19:43:18.824Z,61.89
2023-03-26T19:46:00.487Z,61.93
2023-03-26T19:48:45.527Z,62.11
2023-03-26T19:51:34.013Z,62.25
2023-03-26T19:54:04.175Z,62.28
2023-03-26T19:56:31.275Z,62.36
2023-03-26T19:58:58.855Z,62.50
2023-03-26T20:01:31.248Z,62.56
2023-03-26T20:04:05.901Z,62.44
2023-03-26T20:09:26.917Z,62.54
2023-03-26T20:11:53.786Z,62.50
2023-03-26T20:14:25.328Z,62.46
2023-03-26T20:16:52.439Z,62.44
2023-03-26T20:19:20.047Z,62.35
2023-03-26T20:21:55.171Z,62.28
2023-03-26T20:24:24.169Z,62.24
2023-03-26T20:26:51.019Z,62.18
2023-03-26T20:29:19.422Z,62.14
2023-03-26T20:31:48.003Z,62.19
2023-03-26T20:34:22.874Z,62.11
2023-03-26T20:36:56.707Z,62.09
2023-03-26T20:39:28.719Z,62.11
2023-03-26T20:41:56.572Z,62.18
2023-03-26T20:44:26.284Z,62.07
2023-03-26T20:46:53.476Z,62.26
2023-03-26T20:49:24.701Z,62.14
2023-03-26T20:51:51.470Z,62.26
2023-03-26T20:54:21.268Z,62.15
2023-03-26T20:56:48.444Z,62.26
2023-03-26T20:59:25.789Z,62.35
2023-03-26T21:01:56.008Z,62.35
2023-03-26T21:04:24.309Z,62.41
2023-03-26T21:06:53.217Z,62.43
2023-03-26T21:09:23.609Z,62.47
2023-03-26T21:12:01.544Z,62.53
2023-03-26T21:14:43.528Z,62.56
2023-03-26T21:17:16.129Z,62.73
2023-03-26T21:19:43.362Z,62.83
2023-03-26T21:22:39.957Z,62.95
2023-03-26T21:25:36.556Z,63.00
2023-03-26T21:28:24.018Z,62.99
2023-03-26T21:30:55.253Z,63.08
2023-03-26T21:33:23.136Z,63.25
2023-03-26T21:35:51.418Z,63.41
2023-03-26T21:38:24.367Z,63.53
2023-03-26T21:40:58.846Z,63.67
2023-03-26T21:43:27.794Z,63.69
2023-03-26T21:45:57.661Z,63.81
2023-03-26T21:48:27.012Z,63.82
2023-03-26T21:50:54.640Z,63.75
2023-03-26T21:53:26.598Z,63.71
2023-03-26T21:56:09.989Z,63.63
2023-03-26T21:58:57.357Z,63.65
2023-03-26T22:01:26.384Z,63.56
2023-03-26T22:04:15.970Z,63.59
2023-03-26T22:06:53.997Z,63.55
2023-03-26T22:09:35.556Z,63.81
2023-03-26T22:12:04.399Z,63.78
2023-03-26T22:14:33.941Z,63.75
2023-03-26T22:17:01.317Z,63.90
2023-03-26T22:19:31.720Z,64.01
2023-03-26T22:22:00.007Z,64.08
2023-03-26T22:24:30.265Z,64.18
2023-03-26T22:27:03.310Z,64.30
2023-03-26T22:29:30.431Z,64.53
2023-03-26T22:31:57.297Z,64.82
2023-03-26T22:34:24.547Z,65.02
2023-03-26T22:36:52.681Z,65.33
2023-03-26T22:39:19.509Z,65.62
2023-03-26T22:41:47.247Z,65.84
2023-03-26T22:46:48.585Z,66.27
2023-03-26T22:49:15.812Z,66.34
2023-03-26T22:51:49.827Z,66.43
2023-03-26T22:54:16.744Z,66.63
2023-03-26T22:56:45.251Z,66.78
2023-03-26T22:59:13.385Z,66.93
2023-03-26T23:01:40.935Z,67.02
2023-03-26T23:04:08.033Z,67.10
2023-03-26T23:06:35.045Z,67.30
2023-03-26T23:09:02.060Z,67.56
2023-03-26T23:11:30.599Z,67.84
2023-03-26T23:13:59.212Z,68.01
2023-03-26T23:16:26.180Z,68.38
2023-03-26T23:18:57.894Z,68.69
2023-03-26T23:21:25.628Z,68.83
2023-03-26T23:23:52.606Z,68.89
2023-03-26T23:26:25.308Z,69.21
2023-03-26T23:28:52.860Z,69.27
2023-03-26T23:31:19.928Z,69.31
2023-03-26T23:33:47.089Z,69.38
2023-03-26T23:36:17.322Z,69.56
2023-03-26T23:38:47.230Z,69.65
2023-03-26T23:41:18.846Z,69.65
2023-03-26T23:43:54.610Z,69.84
2023-03-26T23:46:29.634Z,70.00
2023-03-26T23:48:59.264Z,70.13
2023-03-26T23:51:29.282Z,70.11
2023-03-26T23:53:56.520Z,70.14
2023-03-26T23:56:24.178Z,70.19
2023-03-26T23:58:55.614Z,70.21
